Time;durP1;ratioP1;P1;durP2;ratioP2;P2;SDS_P1;SDS_P2;PMS_P1;PMS_P2;Temp;Humidity;BMP_temperature;BMP_pressure;BME280_temperature;BME280_humidity;BME280_pressure;Samples;Min_cycle;Max_cycle;Signal;HPM_P1;HPM_P2
2022/10/03 00:02:24;;;;;;;;;12.67;12.00;;;;;16.01;67.16;101868.63;5055072;28;46296;-66
2022/10/03 00:05:14;;;;;;;;;9.00;9.00;;;;;15.97;67.61;101862.59;5054996;28;45551;-67
2022/10/03 00:08:07;;;;;;;;;9.00;9.00;;;;;15.98;67.79;101866.09;5055987;28;45508;-68
2022/10/03 00:11:08;;;;;;;;;10.33;9.00;;;;;15.97;67.37;101870.53;5055048;28;45412;-67
2022/10/03 00:13:52;;;;;;;;;10.00;7.00;;;;;15.97;67.18;101875.00;5037490;28;47154;-67
2022/10/03 00:16:39;;;;;;;;;12.00;11.00;;;;;15.92;66.99;101877.81;5055833;28;45399;-66
2022/10/03 00:19:19;;;;;;;;;9.00;9.00;;;;;15.94;67.11;101875.13;5055707;28;45447;-68
2022/10/03 00:22:31;;;;;;;;;10.00;10.00;;;;;15.90;67.28;101877.88;5055337;28;45473;-66
2022/10/03 00:25:11;;;;;;;;;9.00;9.00;;;;;15.89;67.77;101878.78;5018535;28;46459;-67
2022/10/03 00:27:44;;;;;;;;;12.00;11.00;;;;;15.83;67.42;101872.84;5055198;28;45475;-66
2022/10/03 00:30:22;;;;;;;;;11.33;10.33;;;;;15.83;67.51;101878.16;5054910;28;45367;-67
2022/10/03 00:33:02;;;;;;;;;9.67;9.67;;;;;15.84;67.78;101878.09;5054897;28;45620;-66
2022/10/03 00:35:39;;;;;;;;;11.67;10.67;;;;;15.85;67.87;101881.59;5055201;28;45585;-67
2022/10/03 00:38:29;;;;;;;;;8.67;7.00;;;;;15.85;67.64;101884.25;5035108;28;45505;-66
2022/10/03 00:41:36;;;;;;;;;8.67;8.00;;;;;15.82;68.25;101873.75;5055493;28;45551;-66
2022/10/03 00:44:29;;;;;;;;;14.67;14.67;;;;;15.82;67.65;101879.06;5034290;28;45547;-67
2022/10/03 00:47:06;;;;;;;;;11.00;10.00;;;;;15.82;67.92;101881.72;5054321;28;46389;-68
2022/10/03 00:49:46;;;;;;;;;7.00;7.00;;;;;15.79;68.32;101879.19;5058022;28;45514;-66
2022/10/03 00:52:41;;;;;;;;;10.67;10.67;;;;;15.77;67.64;101879.25;5053770;28;45285;-66
2022/10/03 00:55:06;;;;;;;;;9.00;9.00;;;;;15.76;68.04;101884.59;5039022;28;45360;-68
2022/10/03 00:57:40;;;;;;;;;11.67;10.33;;;;;15.76;67.91;101884.59;5038633;28;45408;-67
2022/10/03 01:00:15;;;;;;;;;11.00;9.00;;;;;15.67;67.21;101870.72;5039259;28;45506;-66
2022/10/03 01:02:43;;;;;;;;;9.00;9.00;;;;;15.68;67.96;101875.13;5044533;28;45450;-68
2022/10/03 01:05:17;;;;;;;;;10.33;9.00;;;;;15.64;68.04;101886.75;5072309;28;45439;-67
2022/10/03 01:08:04;;;;;;;;;12.00;10.00;;;;;15.63;68.42;101886.78;5058683;28;45569;-67
2022/10/03 01:10:47;;;;;;;;;9.00;9.00;;;;;15.63;67.74;101879.69;5058409;28;45529;-67
2022/10/03 01:13:17;;;;;;;;;10.33;10.00;;;;;15.61;68.84;101878.91;5058768;28;45476;-66
2022/10/03 01:15:55;;;;;;;;;10.67;9.33;;;;;15.62;68.11;101882.41;5058640;28;45389;-66
2022/10/03 01:18:32;;;;;;;;;7.67;7.67;;;;;15.61;67.77;101865.66;5058199;28;45518;-68
2022/10/03 01:21:16;;;;;;;;;8.00;8.00;;;;;15.63;68.69;101878.84;5057792;28;45428;-67
2022/10/03 01:24:09;;;;;;;;;8.00;8.00;;;;;15.67;68.30;101881.31;5057788;28;45398;-66
2022/10/03 01:26:43;;;;;;;;;10.00;8.67;;;;;15.67;67.47;101883.13;5058229;28;45415;-68
2022/10/03 01:32:17;;;;;;;;;9.00;7.67;;;;;15.62;67.59;101869.16;5057507;28;45363;-68
2022/10/03 01:35:06;;;;;;;;;9.00;8.00;;;;;15.59;67.94;101870.13;5057286;28;45275;-67
2022/10/03 01:37:34;;;;;;;;;9.67;9.67;;;;;15.58;68.85;101881.69;5058349;28;45470;-67
2022/10/03 01:40:28;;;;;;;;;10.00;9.33;;;;;15.55;68.93;101875.59;5057533;28;46284;-68
2022/10/03 01:43:02;;;;;;;;;9.00;9.00;;;;;15.50;68.16;101886.38;5030210;28;45602;-67
2022/10/03 01:45:28;;;;;;;;;9.00;9.00;;;;;15.50;68.39;101874.88;5057098;28;45498;-67
2022/10/03 01:48:05;;;;;;;;;12.00;9.00;;;;;15.44;68.24;101857.41;5057813;28;45437;-67
2022/10/03 01:50:45;;;;;;;;;10.00;10.00;;;;;15.49;68.34;101867.88;5057916;28;46587;-68
2022/10/03 01:53:22;;;;;;;;;9.67;8.67;;;;;15.45;68.27;101860.03;5057927;28;45384;-66
2022/10/03 01:56:04;;;;;;;;;10.33;9.67;;;;;15.49;68.68;101866.06;5056953;28;45435;-67
2022/10/03 01:58:40;;;;;;;;;7.67;7.67;;;;;15.47;68.68;101870.56;5057763;28;45439;-66
2022/10/03 02:01:13;;;;;;;;;6.67;6.67;;;;;15.37;68.34;101858.56;5056333;28;46154;-67
2022/10/03 02:03:55;;;;;;;;;11.33;10.00;;;;;15.30;68.74;101857.03;5057148;28;45391;-67
2022/10/03 02:06:36;;;;;;;;;11.67;9.00;;;;;15.37;69.27;101863.88;5057842;28;45364;-67
2022/10/03 02:09:09;;;;;;;;;11.00;11.00;;;;;15.43;68.82;101867.16;5057989;28;45352;-66
2022/10/03 02:11:52;;;;;;;;;10.00;10.00;;;;;15.44;67.82;101865.38;5056763;28;45422;-66
2022/10/03 02:14:38;;;;;;;;;9.00;9.00;;;;;15.41;67.91;101863.69;5038932;28;45505;-68
2022/10/03 02:17:29;;;;;;;;;10.00;10.00;;;;;15.42;68.93;101862.78;5057308;28;45447;-66
2022/10/03 02:20:13;;;;;;;;;10.00;8.33;;;;;15.41;68.96;101863.69;5039357;28;45322;-67
2022/10/03 02:22:52;;;;;;;;;9.00;9.00;;;;;15.36;68.28;101870.06;5056758;28;46199;-68
2022/10/03 02:25:23;;;;;;;;;8.67;8.67;;;;;15.38;68.49;101871.75;5056797;28;45561;-67
2022/10/03 02:28:06;;;;;;;;;8.33;8.33;;;;;15.39;68.50;101859.34;5057090;28;45304;-68
2022/10/03 02:30:59;;;;;;;;;9.00;9.00;;;;;15.35;69.54;101863.91;5057386;28;45458;-67
2022/10/03 02:33:46;;;;;;;;;8.33;8.33;;;;;15.30;69.50;101854.41;5057244;28;45449;-66
2022/10/03 02:36:31;;;;;;;;;10.00;9.00;;;;;15.27;70.02;101865.97;5038710;28;45488;-67
2022/10/03 02:39:08;;;;;;;;;11.00;8.33;;;;;15.32;68.75;101863.16;5057027;28;45497;-68
2022/10/03 02:42:08;;;;;;;;;12.33;10.67;;;;;15.28;69.31;101857.09;5056827;28;45416;-64
2022/10/03 02:44:55;;;;;;;;;9.33;9.33;;;;;15.33;68.75;101857.78;5008408;28;45554;-67
2022/10/03 02:47:45;;;;;;;;;10.00;9.00;;;;;15.30;68.48;101863.22;5038303;28;45455;-67
2022/10/03 02:50:27;;;;;;;;;9.33;9.33;;;;;15.28;69.88;101866.81;5057198;28;45381;-67
2022/10/03 02:53:21;;;;;;;;;9.33;7.33;;;;;15.27;69.47;101865.09;5056916;28;45466;-68
2022/10/03 02:56:15;;;;;;;;;7.00;7.00;;;;;15.28;69.02;101867.69;5037771;28;47309;-67
2022/10/03 02:59:22;;;;;;;;;11.00;10.00;;;;;15.25;69.88;101865.16;5024923;28;45490;-66
2022/10/03 03:02:09;;;;;;;;;9.00;9.00;;;;;15.25;69.33;101862.50;4956336;28;45659;-67
2022/10/03 03:05:07;;;;;;;;;10.33;10.00;;;;;15.24;69.31;101861.63;5053552;28;45459;-66
2022/10/03 03:08:09;;;;;;;;;10.67;10.67;;;;;15.17;68.99;101852.16;5056622;28;45462;-67
2022/10/03 03:11:06;;;;;;;;;11.67;11.67;;;;;15.22;69.88;101859.97;5024998;28;45607;-68
2022/10/03 03:13:57;;;;;;;;;12.00;10.00;;;;;15.25;69.05;101858.06;5056941;28;45419;-66
2022/10/03 03:16:26;;;;;;;;;10.00;10.00;;;;;15.24;69.68;101866.94;5056701;28;45693;-66
2022/10/03 03:19:09;;;;;;;;;10.33;10.33;;;;;15.25;69.06;101865.16;5055422;28;45443;-66
2022/10/03 03:21:43;;;;;;;;;10.67;10.67;;;;;15.28;69.96;101858.88;5056033;28;45372;-66
2022/10/03 03:24:27;;;;;;;;;6.67;6.67;;;;;15.24;69.81;101859.00;5055674;28;45502;-66
2022/10/03 03:27:26;;;;;;;;;12.67;11.67;;;;;15.25;68.85;101866.00;5056517;28;45496;-67
2022/10/03 03:30:07;;;;;;;;;15.33;15.33;;;;;15.29;69.66;101858.84;5056038;28;45619;-67
2022/10/03 03:33:00;;;;;;;;;13.33;13.33;;;;;15.34;69.19;101861.31;5055655;28;45502;-67
2022/10/03 03:35:45;;;;;;;;;12.33;12.00;;;;;15.36;69.31;101860.34;5056670;28;45424;-67
2022/10/03 03:38:31;;;;;;;;;8.00;8.00;;;;;15.33;69.27;101855.13;5056201;28;45344;-67
2022/10/03 03:41:00;;;;;;;;;9.67;9.00;;;;;15.36;69.00;101862.97;5055960;28;45487;-66
2022/10/03 03:43:58;;;;;;;;;13.33;11.00;;;;;15.30;70.09;101851.75;5038055;28;45338;-67
2022/10/03 03:46:52;;;;;;;;;10.00;9.33;;;;;15.32;69.19;101852.56;5037770;28;45489;-66
2022/10/03 03:49:57;;;;;;;;;12.67;11.67;;;;;15.33;70.08;101854.28;5055196;28;45384;-66
2022/10/03 03:52:34;;;;;;;;;13.00;13.00;;;;;15.30;69.63;101863.22;5056058;28;45454;-68
2022/10/03 03:55:28;;;;;;;;;17.67;17.33;;;;;15.27;69.54;101858.00;5055965;28;45533;-67
2022/10/03 03:58:03;;;;;;;;;18.00;17.67;;;;;15.23;69.27;101861.69;5055946;28;45620;-68
2022/10/03 04:00:44;;;;;;;;;18.67;18.00;;;;;15.17;70.48;101853.94;5055699;28;45621;-66
2022/10/03 04:03:47;;;;;;;;;14.00;14.00;;;;;15.17;69.29;101861.91;5037377;28;46556;-67
2022/10/03 04:06:33;;;;;;;;;22.67;20.33;;;;;15.11;70.25;101865.63;5055892;28;45477;-66
2022/10/03 04:09:18;;;;;;;;;23.67;19.33;;;;;15.08;69.35;101865.72;5037565;28;45401;-67
2022/10/03 04:12:08;;;;;;;;;26.00;22.67;;;;;15.03;70.13;101857.94;5055782;28;45484;-67
2022/10/03 04:15:01;;;;;;;;;26.00;26.00;;;;;15.00;70.37;101865.97;5055681;28;45468;-67
2022/10/03 04:20:37;;;;;;;;;28.00;25.67;;;;;14.97;71.02;101862.59;5054579;28;45413;-67
2022/10/03 04:23:18;;;;;;;;;28.33;27.67;;;;;14.97;70.50;101862.59;5055579;28;45505;-68
2022/10/03 04:26:06;;;;;;;;;28.00;26.00;;;;;14.99;69.86;101871.31;5040660;28;46316;-67
2022/10/03 04:28:53;;;;;;;;;26.33;26.33;;;;;14.94;70.46;101862.69;5040932;28;45479;-67
2022/10/03 04:31:55;;;;;;;;;33.33;27.00;;;;;14.80;70.81;101861.38;5058968;28;45384;-67
2022/10/03 04:34:21;;;;;;;;;26.00;23.00;;;;;14.76;70.43;101874.75;5059176;28;45588;-67
2022/10/03 04:37:23;;;;;;;;;31.67;29.67;;;;;14.69;70.86;101868.75;5057528;28;46181;-67
2022/10/03 04:40:06;;;;;;;;;25.00;24.67;;;;;14.69;70.43;101876.72;5057878;28;45383;-67
2022/10/03 04:42:54;;;;;;;;;19.33;16.67;;;;;14.62;71.43;101869.91;5057955;28;45434;-67
2022/10/03 04:45:35;;;;;;;;;23.33;22.00;;;;;14.58;70.50;101865.59;5040112;28;45555;-67
2022/10/03 04:48:08;;;;;;;;;24.33;21.67;;;;;14.52;70.65;101863.13;5058900;28;46538;-66
2022/10/03 04:50:57;;;;;;;;;23.00;18.33;;;;;14.52;70.89;101865.78;5058255;28;45457;-67
2022/10/03 04:53:39;;;;;;;;;20.33;19.00;;;;;14.57;70.93;101869.19;5058991;28;45367;-67
2022/10/03 04:56:49;;;;;;;;;19.33;17.33;;;;;14.52;70.89;101869.31;5058616;28;45375;-66
2022/10/03 04:59:26;;;;;;;;;16.00;16.00;;;;;14.53;71.07;101872.81;5057870;28;45537;-67
2022/10/03 05:01:55;;;;;;;;;21.33;17.33;;;;;14.50;70.70;101878.19;5059334;28;45443;-67
2022/10/03 05:04:35;;;;;;;;;19.33;18.00;;;;;14.46;71.46;101871.25;5058447;28;45493;-67
2022/10/03 05:07:07;;;;;;;;;16.67;15.00;;;;;14.50;71.13;101879.03;5058127;28;45372;-66
2022/10/03 05:09:38;;;;;;;;;19.33;17.67;;;;;14.49;71.29;101879.09;5040226;28;45520;-67
2022/10/03 05:12:36;;;;;;;;;15.00;14.33;;;;;14.54;71.31;101887.81;5057989;28;45439;-65
2022/10/03 05:15:24;;;;;;;;;18.67;18.33;;;;;14.57;70.39;101880.63;5040370;28;45428;-68
2022/10/03 05:18:34;;;;;;;;;12.33;11.33;;;;;14.53;70.34;101878.13;5058333;28;45531;-67
2022/10/03 05:21:18;;;;;;;;;14.67;14.67;;;;;14.50;71.19;101883.47;5041585;28;46048;-66
2022/10/03 05:24:02;;;;;;;;;15.00;15.00;;;;;14.53;70.79;101881.66;5057764;28;45541;-67
2022/10/03 05:26:52;;;;;;;;;13.67;13.67;;;;;14.48;70.57;101886.19;5058373;28;45407;-67
2022/10/03 05:29:42;;;;;;;;;16.67;15.67;;;;;14.50;71.94;101886.13;5057169;28;45377;-68
2022/10/03 05:32:13;;;;;;;;;19.00;14.67;;;;;14.54;70.88;101879.88;5052608;28;45615;-67
2022/10/03 05:35:16;;;;;;;;;20.00;18.00;;;;;14.51;71.88;101878.16;5058067;28;45399;-66
2022/10/03 05:38:30;;;;;;;;;16.00;15.33;;;;;14.52;71.63;101890.50;5049758;28;45324;-66
2022/10/03 05:40:58;;;;;;;;;15.00;15.00;;;;;14.44;71.38;101884.53;4964546;28;45331;-67
2022/10/03 05:43:35;;;;;;;;;14.67;13.00;;;;;14.39;71.27;101883.81;5058495;28;45570;-66
2022/10/03 05:46:10;;;;;;;;;16.33;14.00;;;;;14.36;71.60;101887.41;5051145;28;45388;-67
2022/10/03 05:49:03;;;;;;;;;16.67;15.00;;;;;14.38;71.63;101900.63;5037893;28;45397;-66
2022/10/03 05:52:06;;;;;;;;;15.67;14.00;;;;;14.36;70.98;101892.69;5040444;28;45409;-66
2022/10/03 05:54:31;;;;;;;;;13.33;13.33;;;;;14.38;70.56;101894.47;5056430;28;46632;-66
2022/10/03 05:57:27;;;;;;;;;16.00;13.33;;;;;14.38;70.60;101894.47;5030661;28;45364;-65
2022/10/03 06:00:07;;;;;;;;;13.67;13.67;;;;;14.36;69.90;101892.69;5019539;28;45377;-66
2022/10/03 06:03:11;;;;;;;;;13.33;13.33;;;;;14.31;69.81;101878.75;5049824;28;45505;-66
2022/10/03 06:05:48;;;;;;;;;14.67;13.00;;;;;14.37;69.95;101888.28;5046252;28;45462;-67
2022/10/03 06:08:18;;;;;;;;;11.00;10.67;;;;;14.35;69.70;101884.81;5054221;28;45467;-66
2022/10/03 06:11:02;;;;;;;;;16.67;15.00;;;;;14.31;69.55;101877.88;5043108;28;45576;-68
2022/10/03 06:13:39;;;;;;;;;12.00;12.00;;;;;14.27;68.90;101874.47;5038230;28;45412;-68
2022/10/03 06:16:29;;;;;;;;;16.00;11.33;;;;;14.20;69.13;101877.34;5049004;28;45457;-68
2022/10/03 06:19:13;;;;;;;;;14.67;14.00;;;;;14.10;68.80;101877.63;5026657;28;45533;-68
2022/10/03 06:21:40;;;;;;;;;11.33;11.33;;;;;13.99;68.96;101892.91;5038025;28;45495;-67
2022/10/03 06:24:11;;;;;;;;;11.33;11.33;;;;;13.86;69.19;101886.25;5030590;28;45417;-68
2022/10/03 06:27:04;;;;;;;;;11.00;11.00;;;;;13.73;69.37;101893.69;5033569;28;46428;-68
2022/10/03 06:29:44;;;;;;;;;14.00;14.00;;;;;13.63;69.31;101901.00;5035212;28;45471;-66
2022/10/03 06:32:37;;;;;;;;;13.33;12.33;;;;;13.66;69.80;101902.69;5036740;28;45395;-66
2022/10/03 06:35:24;;;;;;;;;11.00;11.00;;;;;13.66;69.71;101897.41;5021609;28;45431;-66
2022/10/03 06:37:58;;;;;;;;;15.67;15.33;;;;;13.67;69.71;101901.75;5029849;28;46294;-66
2022/10/03 06:40:30;;;;;;;;;16.67;15.33;;;;;13.68;69.64;101887.66;5016756;28;45419;-68
2022/10/03 06:43:13;;;;;;;;;14.33;13.33;;;;;13.66;69.93;101892.09;5022938;28;45455;-69
2022/10/03 06:46:11;;;;;;;;;16.00;13.33;;;;;13.71;69.69;101900.78;5028737;28;45475;-68
2022/10/03 06:49:04;;;;;;;;;19.67;19.67;;;;;13.69;70.26;101915.81;5030979;28;45465;-65
2022/10/03 06:51:42;;;;;;;;;16.67;15.00;;;;;13.73;69.53;101908.66;5028608;28;45440;-68
2022/10/03 06:55:03;;;;;;;;;17.67;16.67;;;;;13.70;70.11;101920.19;5036151;28;45601;-65
2022/10/03 06:58:03;;;;;;;;;19.33;17.33;;;;;13.69;69.97;101911.38;5027556;28;45627;-65
2022/10/03 07:01:13;;;;;;;;;18.00;15.00;;;;;13.69;70.00;101906.09;5028712;28;47530;-66
2022/10/03 07:04:09;;;;;;;;;17.00;15.33;;;;;13.74;70.15;101905.13;5035823;28;45515;-65
2022/10/03 07:06:36;;;;;;;;;14.67;13.67;;;;;13.81;70.04;101909.31;5034155;28;45445;-65
2022/10/03 07:09:19;;;;;;;;;18.00;16.00;;;;;13.79;69.87;101912.00;5036082;28;45453;-65
2022/10/03 07:12:20;;;;;;;;;13.33;13.33;;;;;13.79;69.87;101917.31;5035993;28;46573;-64
2022/10/03 07:15:32;;;;;;;;;10.33;9.00;;;;;13.80;69.76;101921.66;5035775;28;45366;-66
2022/10/03 07:18:36;;;;;;;;;10.67;10.00;;;;;13.84;69.75;101925.13;5035714;28;45408;-66
2022/10/03 07:21:23;;;;;;;;;13.33;12.33;;;;;13.87;69.11;101927.66;5034990;28;45403;-65
2022/10/03 07:24:16;;;;;;;;;9.67;9.67;;;;;13.86;69.62;101925.91;5036903;28;46238;-65
2022/10/03 07:27:08;;;;;;;;;10.00;7.67;;;;;13.88;69.93;101922.31;5055275;28;45485;-63
2022/10/03 07:29:56;;;;;;;;;10.67;10.00;;;;;13.89;69.59;101929.38;5055591;28;45374;-65
2022/10/03 07:32:44;;;;;;;;;15.00;12.67;;;;;13.87;69.28;101925.88;5055097;28;45360;-66
2022/10/03 07:38:57;;;;;;;;;12.67;10.33;;;;;13.87;69.73;101932.97;5055604;28;45605;-63
2022/10/03 07:41:42;;;;;;;;;11.00;11.00;;;;;13.90;69.79;101941.66;5055747;28;45497;-62
2022/10/03 07:44:29;;;;;;;;;14.33;11.33;;;;;13.94;69.43;101939.78;5055387;28;45405;-65
2022/10/03 07:47:33;;;;;;;;;12.67;12.33;;;;;13.95;69.10;101936.25;5055285;28;45606;-62
2022/10/03 07:50:36;;;;;;;;;13.00;11.00;;;;;14.02;69.51;101939.59;5055471;28;45446;-63
2022/10/03 07:53:28;;;;;;;;;11.00;11.00;;;;;14.00;69.95;101931.72;5055454;28;45360;-64
2022/10/03 07:56:31;;;;;;;;;16.33;14.00;;;;;14.06;69.12;101949.19;5055488;28;45507;-62
2022/10/03 07:59:24;;;;;;;;;18.00;16.67;;;;;14.08;69.19;101950.00;5053998;28;45448;-64
2022/10/03 08:02:08;;;;;;;;;18.00;17.33;;;;;14.09;70.09;101935.88;5055787;28;45467;-64
2022/10/03 08:05:24;;;;;;;;;20.67;18.00;;;;;14.11;69.26;101949.91;5055590;28;45428;-64
2022/10/03 08:08:23;;;;;;;;;19.00;19.00;;;;;14.10;69.86;101953.47;4973637;28;45545;-65
2022/10/03 08:11:24;;;;;;;;;21.33;20.33;;;;;14.09;69.91;101957.88;5055193;28;46496;-63
2022/10/03 08:13:56;;;;;;;;;21.33;20.67;;;;;14.11;69.79;101958.72;5054946;28;45653;-63
2022/10/03 08:16:30;;;;;;;;;24.33;21.33;;;;;14.15;69.69;101962.13;5055429;28;45557;-64
2022/10/03 08:19:07;;;;;;;;;20.33;19.00;;;;;14.15;69.71;101963.00;5055212;28;45360;-65
2022/10/03 08:21:42;;;;;;;;;16.00;15.67;;;;;14.17;69.59;101964.75;5054749;28;45426;-62
2022/10/03 08:24:34;;;;;;;;;15.00;14.67;;;;;14.15;68.98;101954.19;5054796;28;45398;-64
2022/10/03 08:27:15;;;;;;;;;14.33;14.33;;;;;14.08;68.60;101961.47;5055076;28;45471;-62
2022/10/03 08:30:08;;;;;;;;;19.67;19.00;;;;;14.07;69.45;101950.91;5054875;28;45479;-64
2022/10/03 08:32:55;;;;;;;;;22.00;20.33;;;;;14.08;68.86;101950.00;5054270;28;45450;-63
2022/10/03 08:35:29;;;;;;;;;17.33;17.33;;;;;14.10;69.42;101953.47;5054797;28;45552;-65
2022/10/03 08:38:09;;;;;;;;;17.33;17.33;;;;;14.12;68.77;101949.00;5054994;28;45459;-65
2022/10/03 08:40:55;;;;;;;;;15.33;12.33;;;;;14.11;69.08;101956.06;5055150;28;45422;-64
2022/10/03 08:44:08;;;;;;;;;20.33;19.33;;;;;14.17;68.78;101951.53;5054715;28;45481;-65
2022/10/03 08:46:49;;;;;;;;;23.67;23.67;;;;;14.20;68.16;101944.34;5036696;28;45597;-66
2022/10/03 08:49:51;;;;;;;;;22.00;22.00;;;;;14.22;69.17;101947.81;5055180;28;45469;-64
2022/10/03 08:52:29;;;;;;;;;24.67;22.67;;;;;14.19;68.14;101944.41;5054437;28;45297;-65
2022/10/03 08:55:16;;;;;;;;;20.67;19.00;;;;;14.21;68.56;101943.47;5054833;28;45497;-63
2022/10/03 08:57:44;;;;;;;;;22.33;22.33;;;;;14.13;68.13;101953.38;5054702;28;45507;-65
2022/10/03 09:00:14;;;;;;;;;22.67;21.00;;;;;14.10;68.76;101950.81;5054558;28;45426;-64
2022/10/03 09:03:16;;;;;;;;;26.00;23.33;;;;;14.11;68.09;101947.28;5055233;28;45525;-63
2022/10/03 09:06:07;;;;;;;;;23.33;23.00;;;;;14.16;68.74;101940.06;5054555;28;45298;-65
2022/10/03 09:09:10;;;;;;;;;27.00;25.00;;;;;14.15;68.45;101944.47;5054634;28;45443;-63
2022/10/03 09:12:08;;;;;;;;;28.00;24.67;;;;;14.20;68.73;101947.00;5057760;28;45596;-65
2022/10/03 09:14:36;;;;;;;;;27.33;25.00;;;;;14.29;68.94;101949.41;5038174;28;45477;-63
2022/10/03 09:17:13;;;;;;;;;26.00;24.33;;;;;14.33;68.90;101964.25;5057935;28;45571;-64
2022/10/03 09:20:01;;;;;;;;;28.67;25.33;;;;;14.33;68.56;101969.56;5057328;28;45419;-64
2022/10/03 09:23:08;;;;;;;;;26.00;25.67;;;;;14.33;68.84;101974.84;5039530;28;45545;-64
2022/10/03 09:25:56;;;;;;;;;23.00;23.00;;;;;14.33;68.49;101982.78;5038803;28;45432;-66
2022/10/03 09:28:40;;;;;;;;;25.67;25.33;;;;;14.32;68.60;101980.19;5057487;28;45477;-64
2022/10/03 09:31:28;;;;;;;;;24.33;22.67;;;;;14.31;68.41;101984.59;5057136;28;45370;-64
2022/10/03 09:33:56;;;;;;;;;19.67;19.67;;;;;14.41;68.27;101992.28;5057740;28;45451;-64
2022/10/03 09:36:48;;;;;;;;;24.33;21.67;;;;;14.41;68.21;101987.00;5057588;28;45593;-66
2022/10/03 09:39:26;;;;;;;;;23.67;22.67;;;;;14.44;68.09;101989.56;5057174;28;45433;-63
2022/10/03 09:42:09;;;;;;;;;23.67;22.33;;;;;14.42;67.91;101991.38;5057541;28;45509;-64
2022/10/03 09:44:58;;;;;;;;;28.33;28.33;;;;;14.32;67.78;101974.91;5057706;28;45463;-63
2022/10/03 09:48:05;;;;;;;;;39.00;35.33;;;;;14.47;68.39;101992.09;5057630;28;45376;-65
2022/10/03 09:51:01;;;;;;;;;26.00;22.67;;;;;14.50;67.88;101994.66;4975222;28;45521;-65
2022/10/03 09:53:58;;;;;;;;;25.00;22.67;;;;;14.52;67.39;101979.59;4975601;28;45433;-65
2022/10/03 09:56:38;;;;;;;;;22.00;21.00;;;;;14.58;67.82;101993.53;5047296;28;45391;-65
2022/10/03 09:59:32;;;;;;;;;27.67;26.33;;;;;14.58;67.35;101972.38;5056640;28;45384;-65
2022/10/03 10:02:19;;;;;;;;;27.33;25.67;;;;;14.63;67.47;101974.88;5057926;28;45599;-63
2022/10/03 10:05:05;;;;;;;;;45.67;37.33;;;;;14.64;67.17;101971.34;5057060;28;45403;-66
2022/10/03 10:07:52;;;;;;;;;41.67;35.00;;;;;14.65;67.35;101970.41;5057327;28;45291;-66
2022/10/03 10:10:24;;;;;;;;;40.33;34.67;;;;;14.70;67.36;101960.56;5038957;28;44819;-64
2022/10/03 10:13:15;;;;;;;;;29.00;28.33;;;;;14.73;67.58;101957.81;5056976;28;45479;-63
2022/10/03 10:15:55;;;;;;;;;28.33;27.33;;;;;14.73;67.23;101963.09;5056755;28;45426;-62
2022/10/03 10:18:57;;;;;;;;;21.67;21.67;;;;;14.74;67.46;101964.81;5056995;28;45439;-65
2022/10/03 10:21:31;;;;;;;;;22.00;21.00;;;;;14.74;67.40;101966.63;5055758;28;45535;-65
2022/10/03 10:24:13;;;;;;;;;19.33;19.33;;;;;14.74;67.56;101975.41;5056393;28;46347;-65
2022/10/03 10:26:49;;;;;;;;;26.33;23.67;;;;;14.68;67.28;101969.47;5056734;28;45447;-63
2022/10/03 10:29:30;;;;;;;;;23.67;20.67;;;;;14.71;67.72;101972.00;5056488;28;45401;-65
2022/10/03 10:32:10;;;;;;;;;20.67;20.00;;;;;14.71;67.37;101972.88;5056686;28;45544;-64
2022/10/03 10:35:09;;;;;;;;;22.00;20.67;;;;;14.65;67.38;101954.53;5052971;28;45662;-67
2022/10/03 10:37:53;;;;;;;;;25.33;24.33;;;;;14.73;67.76;101973.69;5031633;28;45609;-65
2022/10/03 10:41:02;;;;;;;;;25.00;22.67;;;;;14.74;67.30;101972.78;5047761;28;45604;-64
2022/10/03 10:44:08;;;;;;;;;27.67;24.00;;;;;14.75;67.18;101958.63;5055805;28;45364;-64
2022/10/03 10:47:05;;;;;;;;;23.00;22.33;;;;;14.82;66.73;101961.94;5049778;28;46274;-66
2022/10/03 10:49:56;;;;;;;;;22.67;22.67;;;;;14.84;66.27;101954.81;5002395;28;45426;-65
2022/10/03 10:52:43;;;;;;;;;30.67;30.00;;;;;14.89;67.12;101950.25;5048259;28;45410;-62
2022/10/03 10:55:37;;;;;;;;;33.67;28.33;;;;;14.92;66.59;101944.00;5053484;28;45504;-60
2022/10/03 10:58:51;;;;;;;;;23.00;21.00;;;;;14.87;66.61;101949.41;5030843;28;46385;-64
2022/10/03 11:01:55;;;;;;;;;24.33;24.00;;;;;14.90;67.19;101951.09;5043181;28;45490;-65
2022/10/03 11:05:14;;;;;;;;;25.33;25.33;;;;;14.92;66.54;101965.19;5056773;28;45455;-64
2022/10/03 11:08:09;;;;;;;;;21.33;20.33;;;;;14.95;66.23;101965.06;5056377;28;45332;-62
2022/10/03 11:10:51;;;;;;;;;24.00;21.67;;;;;14.94;67.07;101963.34;5032969;28;45533;-65
2022/10/03 11:13:50;;;;;;;;;25.67;24.67;;;;;14.97;66.96;101961.47;5036105;28;45494;-65
2022/10/03 11:16:34;;;;;;;;;25.33;22.00;;;;;15.00;66.60;101961.38;5042467;28;45474;-65
2022/10/03 11:19:18;;;;;;;;;26.67;24.00;;;;;15.06;66.39;101964.75;5035868;28;45485;-65
2022/10/03 11:22:09;;;;;;;;;30.00;27.67;;;;;15.03;66.59;101961.25;5035092;28;46436;-63
2022/10/03 11:25:06;;;;;;;;;28.33;27.33;;;;;15.03;66.74;101958.63;5030750;28;45596;-64
2022/10/03 11:28:18;;;;;;;;;26.33;25.00;;;;;15.06;65.95;101960.28;5054451;28;45514;-64
2022/10/03 11:31:03;;;;;;;;;29.33;26.00;;;;;15.13;66.04;101956.53;5053566;28;45643;-66
2022/10/03 11:33:47;;;;;;;;;34.00;31.33;;;;;15.14;65.95;101957.41;5047794;28;45548;-63
2022/10/03 11:36:42;;;;;;;;;23.00;22.00;;;;;15.14;65.75;101960.06;5055870;28;45403;-65
2022/10/03 11:39:32;;;;;;;;;23.00;23.00;;;;;15.16;64.94;101951.13;5054520;28;45589;-65
2022/10/03 11:42:20;;;;;;;;;27.33;26.00;;;;;15.21;65.42;101943.91;5054760;28;45592;-63
2022/10/03 11:44:58;;;;;;;;;22.00;20.00;;;;;15.13;64.25;101931.84;5055348;28;46159;-67
2022/10/03 11:47:32;;;;;;;;;24.67;23.00;;;;;15.16;65.01;101944.97;5055971;28;45423;-63
2022/10/03 11:50:16;;;;;;;;;24.67;24.67;;;;;15.21;64.92;101937.75;5037770;28;45463;-65
2022/10/03 11:53:14;;;;;;;;;26.00;23.67;;;;;15.26;64.73;101933.16;5056063;28;45388;-66
2022/10/03 11:55:40;;;;;;;;;22.33;21.67;;;;;15.29;65.21;101933.06;5054053;28;45581;-68
2022/10/03 11:58:14;;;;;;;;;25.33;25.00;;;;;15.35;64.51;101939.94;5037656;28;45393;-67
2022/10/03 12:00:44;;;;;;;;;21.67;21.67;;;;;15.37;64.17;101940.75;5054545;28;45660;-63
2022/10/03 12:03:18;;;;;;;;;25.33;23.67;;;;;15.35;64.58;101939.94;5056132;28;45459;-66
2022/10/03 12:09:02;;;;;;;;;29.33;28.00;;;;;15.34;63.75;101932.88;5055727;28;45462;-65
2022/10/03 12:11:35;;;;;;;;;20.33;19.33;;;;;15.34;64.65;101932.88;5055661;28;45399;-67
2022/10/03 12:14:03;;;;;;;;;22.67;22.33;;;;;15.35;64.91;101938.13;5055379;28;45483;-67
2022/10/03 12:16:44;;;;;;;;;25.00;23.33;;;;;15.30;65.01;101924.16;5047545;28;46832;-71
2022/10/03 12:19:15;;;;;;;;;22.33;21.33;;;;;15.37;64.42;101933.66;5039231;28;45458;-64
2022/10/03 12:21:52;;;;;;;;;25.00;25.00;;;;;15.38;64.06;101927.44;5054718;28;45495;-63
2022/10/03 12:24:27;;;;;;;;;21.33;21.33;;;;;15.37;63.86;101917.75;5055687;28;45487;-61
2022/10/03 12:27:01;;;;;;;;;21.33;20.33;;;;;15.43;63.92;101916.69;5053471;28;46209;-61
2022/10/03 12:29:32;;;;;;;;;27.67;22.67;;;;;15.48;63.80;101917.38;5054821;28;45568;-61
2022/10/03 12:32:15;;;;;;;;;19.67;19.33;;;;;15.43;64.16;101908.72;5055403;28;45446;-61
2022/10/03 12:34:58;;;;;;;;;20.67;17.00;;;;;15.46;63.84;101911.25;5055175;28;45414;-61
2022/10/03 12:37:26;;;;;;;;;21.00;20.33;;;;;15.51;63.72;101913.75;5053848;28;47277;-60
2022/10/03 12:40:06;;;;;;;;;21.67;21.67;;;;;15.53;63.29;101909.25;5054724;28;45531;-61
2022/10/03 12:43:03;;;;;;;;;23.67;23.00;;;;;15.56;63.55;101910.03;5053992;28;45442;-61
2022/10/03 12:45:33;;;;;;;;;24.00;20.67;;;;;15.60;64.48;101905.47;5057779;28;45419;-60
2022/10/03 12:48:22;;;;;;;;;24.33;22.67;;;;;15.58;63.95;101904.66;5058040;28;46043;-60
2022/10/03 12:51:06;;;;;;;;;20.33;19.00;;;;;15.58;64.37;101896.69;5011058;28;45570;-59